sensor_id;sensor_type;location;lat;lon;timestamp;P1;durP1;ratioP1;P2;durP2;ratioP2
60819;SDS011;46641;48.904;9.126;2023-04-08T00:01:40;7.00;;;6.30;;
60819;SDS011;46641;48.904;9.126;2023-04-08T00:06:31;7.73;;;7.00;;
60819;SDS011;46641;48.904;9.126;2023-04-08T00:11:21;7.30;;;6.60;;
60819;SDS011;46641;48.904;9.126;2023-04-08T00:16:11;7.60;;;6.90;;
60819;SDS011;46641;48.904;9.126;2023-04-08T00:21:02;7.33;;;6.63;;
60819;SDS011;46641;48.904;9.126;2023-04-08T00:25:52;8.30;;;7.50;;
60819;SDS011;46641;48.904;9.126;2023-04-08T00:30:43;8.90;;;7.83;;
60819;SDS011;46641;48.904;9.126;2023-04-08T00:35:33;8.40;;;7.60;;
60819;SDS011;46641;48.904;9.126;2023-04-08T00:40:23;8.30;;;7.23;;
60819;SDS011;46641;48.904;9.126;2023-04-08T00:45:14;8.30;;;7.50;;
60819;SDS011;46641;48.904;9.126;2023-04-08T00:50:06;8.30;;;7.27;;
60819;SDS011;46641;48.904;9.126;2023-04-08T00:54:59;7.07;;;6.37;;
60819;SDS011;46641;48.904;9.126;2023-04-08T00:59:49;7.87;;;7.07;;
60819;SDS011;46641;48.904;9.126;2023-04-08T01:09:56;7.63;;;6.87;;
60819;SDS011;46641;48.904;9.126;2023-04-08T01:14:57;7.80;;;7.00;;
60819;SDS011;46641;48.904;9.126;2023-04-08T01:19:50;7.33;;;6.63;;
60819;SDS011;46641;48.904;9.126;2023-04-08T01:24:42;7.63;;;6.93;;
60819;SDS011;46641;48.904;9.126;2023-04-08T01:29:33;7.47;;;6.67;;
60819;SDS011;46641;48.904;9.126;2023-04-08T01:34:24;7.47;;;6.77;;
60819;SDS011;46641;48.904;9.126;2023-04-08T01:39:16;8.33;;;7.43;;
60819;SDS011;46641;48.904;9.126;2023-04-08T01:44:10;8.70;;;7.63;;
60819;SDS011;46641;48.904;9.126;2023-04-08T01:49:03;8.83;;;8.03;;
60819;SDS011;46641;48.904;9.126;2023-04-08T01:53:55;10.07;;;8.93;;
60819;SDS011;46641;48.904;9.126;2023-04-08T01:58:47;7.60;;;6.90;;
60819;SDS011;46641;48.904;9.126;2023-04-08T02:03:40;8.33;;;7.50;;
60819;SDS011;46641;48.904;9.126;2023-04-08T02:08:35;9.20;;;8.30;;
60819;SDS011;46641;48.904;9.126;2023-04-08T02:13:25;8.83;;;7.83;;
60819;SDS011;46641;48.904;9.126;2023-04-08T02:18:21;9.03;;;8.10;;
60819;SDS011;46641;48.904;9.126;2023-04-08T02:23:33;8.63;;;7.73;;
60819;SDS011;46641;48.904;9.126;2023-04-08T02:28:27;9.27;;;8.33;;
60819;SDS011;46641;48.904;9.126;2023-04-08T02:33:20;10.47;;;8.33;;
60819;SDS011;46641;48.904;9.126;2023-04-08T02:38:11;11.90;;;8.47;;
60819;SDS011;46641;48.904;9.126;2023-04-08T02:43:01;9.48;;;8.48;;
60819;SDS011;46641;48.904;9.126;2023-04-08T02:47:51;8.60;;;7.70;;
60819;SDS011;46641;48.904;9.126;2023-04-08T02:52:42;10.43;;;8.83;;
60819;SDS011;46641;48.904;9.126;2023-04-08T02:57:33;9.63;;;8.27;;
60819;SDS011;46641;48.904;9.126;2023-04-08T03:02:24;9.80;;;8.63;;
60819;SDS011;46641;48.904;9.126;2023-04-08T03:07:15;10.00;;;8.27;;
60819;SDS011;46641;48.904;9.126;2023-04-08T03:12:05;12.17;;;8.77;;
60819;SDS011;46641;48.904;9.126;2023-04-08T03:16:55;11.57;;;8.40;;
60819;SDS011;46641;48.904;9.126;2023-04-08T03:21:46;11.17;;;8.43;;
60819;SDS011;46641;48.904;9.126;2023-04-08T03:26:36;9.52;;;8.35;;
60819;SDS011;46641;48.904;9.126;2023-04-08T03:31:26;11.43;;;9.50;;
60819;SDS011;46641;48.904;9.126;2023-04-08T03:36:17;10.48;;;8.15;;
60819;SDS011;46641;48.904;9.126;2023-04-08T03:41:07;11.27;;;9.27;;
60819;SDS011;46641;48.904;9.126;2023-04-08T03:45:57;13.07;;;9.77;;
60819;SDS011;46641;48.904;9.126;2023-04-08T03:50:47;13.63;;;9.57;;
60819;SDS011;46641;48.904;9.126;2023-04-08T03:55:38;13.37;;;9.27;;
60819;SDS011;46641;48.904;9.126;2023-04-08T04:00:28;11.87;;;9.60;;
60819;SDS011;46641;48.904;9.126;2023-04-08T04:05:19;13.27;;;10.27;;
60819;SDS011;46641;48.904;9.126;2023-04-08T04:10:09;15.18;;;10.63;;
60819;SDS011;46641;48.904;9.126;2023-04-08T04:15:00;13.83;;;10.47;;
60819;SDS011;46641;48.904;9.126;2023-04-08T04:19:51;15.37;;;10.53;;
60819;SDS011;46641;48.904;9.126;2023-04-08T04:24:45;11.83;;;9.33;;
60819;SDS011;46641;48.904;9.126;2023-04-08T04:29:36;12.07;;;9.07;;
60819;SDS011;46641;48.904;9.126;2023-04-08T04:34:26;12.50;;;9.20;;
60819;SDS011;46641;48.904;9.126;2023-04-08T04:39:16;12.07;;;9.73;;
60819;SDS011;46641;48.904;9.126;2023-04-08T04:44:06;13.32;;;9.93;;
60819;SDS011;46641;48.904;9.126;2023-04-08T04:48:57;11.93;;;10.07;;
60819;SDS011;46641;48.904;9.126;2023-04-08T04:53:47;12.63;;;9.87;;
60819;SDS011;46641;48.904;9.126;2023-04-08T04:58:38;13.50;;;9.77;;
60819;SDS011;46641;48.904;9.126;2023-04-08T05:03:29;12.17;;;9.43;;
60819;SDS011;46641;48.904;9.126;2023-04-08T05:08:20;12.17;;;9.30;;
60819;SDS011;46641;48.904;9.126;2023-04-08T05:13:11;13.47;;;9.70;;
60819;SDS011;46641;48.904;9.126;2023-04-08T05:18:01;10.97;;;9.80;;
60819;SDS011;46641;48.904;9.126;2023-04-08T05:22:51;13.20;;;10.43;;
60819;SDS011;46641;48.904;9.126;2023-04-08T05:27:41;13.40;;;10.68;;
60819;SDS011;46641;48.904;9.126;2023-04-08T05:32:32;13.68;;;9.93;;
60819;SDS011;46641;48.904;9.126;2023-04-08T05:37:22;13.32;;;10.23;;
60819;SDS011;46641;48.904;9.126;2023-04-08T05:42:12;12.32;;;10.73;;
60819;SDS011;46641;48.904;9.126;2023-04-08T05:47:02;15.23;;;11.13;;
60819;SDS011;46641;48.904;9.126;2023-04-08T05:51:53;13.45;;;10.70;;
60819;SDS011;46641;48.904;9.126;2023-04-08T05:56:43;12.25;;;9.70;;
60819;SDS011;46641;48.904;9.126;2023-04-08T06:01:35;13.07;;;10.43;;
60819;SDS011;46641;48.904;9.126;2023-04-08T06:06:25;13.87;;;12.30;;
60819;SDS011;46641;48.904;9.126;2023-04-08T06:11:15;11.93;;;10.17;;
60819;SDS011;46641;48.904;9.126;2023-04-08T06:16:09;12.23;;;10.93;;
60819;SDS011;46641;48.904;9.126;2023-04-08T06:21:03;14.37;;;11.23;;
60819;SDS011;46641;48.904;9.126;2023-04-08T06:25:53;13.80;;;11.20;;
60819;SDS011;46641;48.904;9.126;2023-04-08T06:30:43;13.85;;;11.50;;
60819;SDS011;46641;48.904;9.126;2023-04-08T06:35:34;13.33;;;11.80;;
60819;SDS011;46641;48.904;9.126;2023-04-08T06:40:26;14.37;;;11.77;;
60819;SDS011;46641;48.904;9.126;2023-04-08T06:45:16;14.82;;;10.60;;
60819;SDS011;46641;48.904;9.126;2023-04-08T06:50:06;16.60;;;12.98;;
60819;SDS011;46641;48.904;9.126;2023-04-08T06:54:57;14.13;;;11.60;;
60819;SDS011;46641;48.904;9.126;2023-04-08T06:59:47;11.68;;;10.20;;
60819;SDS011;46641;48.904;9.126;2023-04-08T07:04:37;13.15;;;11.05;;
60819;SDS011;46641;48.904;9.126;2023-04-08T07:09:28;15.45;;;12.65;;
60819;SDS011;46641;48.904;9.126;2023-04-08T07:14:18;13.35;;;10.25;;
60819;SDS011;46641;48.904;9.126;2023-04-08T07:19:09;12.47;;;10.37;;
60819;SDS011;46641;48.904;9.126;2023-04-08T07:23:59;13.73;;;10.50;;
60819;SDS011;46641;48.904;9.126;2023-04-08T07:28:50;10.30;;;9.30;;
60819;SDS011;46641;48.904;9.126;2023-04-08T07:33:40;10.60;;;9.47;;
60819;SDS011;46641;48.904;9.126;2023-04-08T07:38:31;11.10;;;9.07;;
60819;SDS011;46641;48.904;9.126;2023-04-08T07:43:21;10.17;;;9.13;;
60819;SDS011;46641;48.904;9.126;2023-04-08T07:48:12;9.50;;;8.23;;
60819;SDS011;46641;48.904;9.126;2023-04-08T07:53:02;9.75;;;8.85;;
60819;SDS011;46641;48.904;9.126;2023-04-08T07:57:52;10.50;;;9.10;;
60819;SDS011;46641;48.904;9.126;2023-04-08T08:02:42;10.95;;;9.75;;
60819;SDS011;46641;48.904;9.126;2023-04-08T08:07:33;10.97;;;9.87;;
60819;SDS011;46641;48.904;9.126;2023-04-08T08:12:23;12.02;;;9.70;;
60819;SDS011;46641;48.904;9.126;2023-04-08T08:17:13;11.23;;;10.10;;
60819;SDS011;46641;48.904;9.126;2023-04-08T08:22:04;12.02;;;10.35;;
60819;SDS011;46641;48.904;9.126;2023-04-08T08:26:54;10.82;;;9.82;;
60819;SDS011;46641;48.904;9.126;2023-04-08T08:31:47;10.50;;;8.97;;
60819;SDS011;46641;48.904;9.126;2023-04-08T08:36:38;12.57;;;9.97;;
60819;SDS011;46641;48.904;9.126;2023-04-08T08:41:32;10.30;;;9.23;;
60819;SDS011;46641;48.904;9.126;2023-04-08T08:46:24;10.40;;;9.30;;
60819;SDS011;46641;48.904;9.126;2023-04-08T08:51:15;11.07;;;9.90;;
60819;SDS011;46641;48.904;9.126;2023-04-08T08:56:07;12.13;;;10.83;;
60819;SDS011;46641;48.904;9.126;2023-04-08T09:00:58;12.23;;;9.30;;
60819;SDS011;46641;48.904;9.126;2023-04-08T09:11:18;10.60;;;9.20;;
60819;SDS011;46641;48.904;9.126;2023-04-08T09:16:11;11.80;;;10.70;;
60819;SDS011;46641;48.904;9.126;2023-04-08T09:21:04;13.23;;;11.17;;
60819;SDS011;46641;48.904;9.126;2023-04-08T09:25:59;12.57;;;11.17;;
60819;SDS011;46641;48.904;9.126;2023-04-08T09:30:55;12.77;;;10.97;;
60819;SDS011;46641;48.904;9.126;2023-04-08T09:35:46;11.90;;;10.63;;
60819;SDS011;46641;48.904;9.126;2023-04-08T09:40:36;12.40;;;11.13;;
60819;SDS011;46641;48.904;9.126;2023-04-08T09:45:28;11.90;;;10.63;;
60819;SDS011;46641;48.904;9.126;2023-04-08T09:50:23;12.50;;;11.27;;
60819;SDS011;46641;48.904;9.126;2023-04-08T09:55:18;12.20;;;10.90;;
60819;SDS011;46641;48.904;9.126;2023-04-08T10:00:13;11.70;;;10.50;;
60819;SDS011;46641;48.904;9.126;2023-04-08T10:05:04;11.27;;;10.07;;
60819;SDS011;46641;48.904;9.126;2023-04-08T10:09:56;12.63;;;11.33;;
60819;SDS011;46641;48.904;9.126;2023-04-08T10:25:30;12.33;;;11.07;;
60819;SDS011;46641;48.904;9.126;2023-04-08T10:35:27;10.90;;;9.80;;
60819;SDS011;46641;48.904;9.126;2023-04-08T10:40:19;11.23;;;10.20;;
60819;SDS011;46641;48.904;9.126;2023-04-08T10:45:09;11.23;;;10.23;;
60819;SDS011;46641;48.904;9.126;2023-04-08T10:50:00;11.37;;;10.17;;
60819;SDS011;46641;48.904;9.126;2023-04-08T10:54:51;10.97;;;9.77;;
60819;SDS011;46641;48.904;9.126;2023-04-08T10:59:42;10.23;;;9.30;;
60819;SDS011;46641;48.904;9.126;2023-04-08T11:04:33;11.63;;;10.20;;
60819;SDS011;46641;48.904;9.126;2023-04-08T11:09:30;11.57;;;10.60;;
60819;SDS011;46641;48.904;9.126;2023-04-08T11:14:23;11.57;;;10.37;;
60819;SDS011;46641;48.904;9.126;2023-04-08T11:19:14;12.23;;;11.03;;
60819;SDS011;46641;48.904;9.126;2023-04-08T11:24:05;12.03;;;10.93;;
60819;SDS011;46641;48.904;9.126;2023-04-08T11:28:58;12.40;;;10.70;;
60819;SDS011;46641;48.904;9.126;2023-04-08T11:33:51;11.27;;;10.17;;
60819;SDS011;46641;48.904;9.126;2023-04-08T11:38:43;11.37;;;10.17;;
60819;SDS011;46641;48.904;9.126;2023-04-08T11:43:33;11.10;;;10.10;;
60819;SDS011;46641;48.904;9.126;2023-04-08T11:48:25;10.47;;;9.37;;
60819;SDS011;46641;48.904;9.126;2023-04-08T11:53:17;10.97;;;9.77;;
60819;SDS011;46641;48.904;9.126;2023-04-08T11:58:08;11.03;;;9.97;;
60819;SDS011;46641;48.904;9.126;2023-04-08T12:02:58;11.05;;;10.00;;
60819;SDS011;46641;48.904;9.126;2023-04-08T12:07:49;10.87;;;9.77;;
60819;SDS011;46641;48.904;9.126;2023-04-08T12:12:39;10.83;;;9.83;;
60819;SDS011;46641;48.904;9.126;2023-04-08T12:17:30;10.77;;;9.70;;
60819;SDS011;46641;48.904;9.126;2023-04-08T12:22:20;12.43;;;10.95;;
60819;SDS011;46641;48.904;9.126;2023-04-08T12:27:11;11.40;;;9.35;;
60819;SDS011;46641;48.904;9.126;2023-04-08T12:32:01;11.07;;;10.07;;
60819;SDS011;46641;48.904;9.126;2023-04-08T12:36:53;10.37;;;9.30;;
60819;SDS011;46641;48.904;9.126;2023-04-08T12:41:44;10.47;;;9.47;;
60819;SDS011;46641;48.904;9.126;2023-04-08T12:46:35;10.70;;;9.70;;
60819;SDS011;46641;48.904;9.126;2023-04-08T12:51:25;10.95;;;9.85;;
60819;SDS011;46641;48.904;9.126;2023-04-08T12:56:15;10.45;;;9.40;;
60819;SDS011;46641;48.904;9.126;2023-04-08T13:01:06;10.88;;;9.77;;
60819;SDS011;46641;48.904;9.126;2023-04-08T13:05:56;10.70;;;9.60;;
60819;SDS011;46641;48.904;9.126;2023-04-08T13:10:48;10.33;;;9.33;;
60819;SDS011;46641;48.904;9.126;2023-04-08T13:15:38;10.23;;;9.32;;
60819;SDS011;46641;48.904;9.126;2023-04-08T13:20:28;9.33;;;8.43;;
60819;SDS011;46641;48.904;9.126;2023-04-08T13:25:19;10.47;;;9.57;;
60819;SDS011;46641;48.904;9.126;2023-04-08T13:30:09;11.30;;;10.20;;
60819;SDS011;46641;48.904;9.126;2023-04-08T13:35:00;10.57;;;9.57;;
60819;SDS011;46641;48.904;9.126;2023-04-08T13:39:50;10.33;;;9.40;;
60819;SDS011;46641;48.904;9.126;2023-04-08T13:44:41;11.50;;;10.30;;
60819;SDS011;46641;48.904;9.126;2023-04-08T13:49:31;10.15;;;9.00;;
60819;SDS011;46641;48.904;9.126;2023-04-08T13:54:21;11.30;;;10.20;;
60819;SDS011;46641;48.904;9.126;2023-04-08T13:59:12;9.93;;;8.93;;
60819;SDS011;46641;48.904;9.126;2023-04-08T14:04:02;8.85;;;7.95;;
60819;SDS011;46641;48.904;9.126;2023-04-08T14:08:52;10.05;;;9.15;;
60819;SDS011;46641;48.904;9.126;2023-04-08T14:13:42;12.83;;;9.77;;
60819;SDS011;46641;48.904;9.126;2023-04-08T14:18:33;9.95;;;9.05;;
60819;SDS011;46641;48.904;9.126;2023-04-08T14:23:23;9.93;;;8.98;;
60819;SDS011;46641;48.904;9.126;2023-04-08T14:28:13;8.45;;;7.57;;
60819;SDS011;46641;48.904;9.126;2023-04-08T14:33:03;8.70;;;7.90;;
60819;SDS011;46641;48.904;9.126;2023-04-08T14:37:54;8.93;;;7.83;;
60819;SDS011;46641;48.904;9.126;2023-04-08T14:42:44;7.50;;;6.77;;
60819;SDS011;46641;48.904;9.126;2023-04-08T14:47:35;7.00;;;6.30;;
60819;SDS011;46641;48.904;9.126;2023-04-08T14:52:25;8.00;;;7.20;;
60819;SDS011;46641;48.904;9.126;2023-04-08T14:57:16;7.40;;;6.70;;
60819;SDS011;46641;48.904;9.126;2023-04-08T15:02:06;6.67;;;6.07;;
60819;SDS011;46641;48.904;9.126;2023-04-08T15:06:56;8.13;;;6.45;;
60819;SDS011;46641;48.904;9.126;2023-04-08T15:11:47;6.73;;;5.87;;
60819;SDS011;46641;48.904;9.126;2023-04-08T15:16:37;4.50;;;4.10;;
60819;SDS011;46641;48.904;9.126;2023-04-08T15:21:27;4.88;;;4.10;;
60819;SDS011;46641;48.904;9.126;2023-04-08T15:26:17;4.15;;;3.85;;
60819;SDS011;46641;48.904;9.126;2023-04-08T15:31:08;4.23;;;3.93;;
60819;SDS011;46641;48.904;9.126;2023-04-08T15:35:58;4.70;;;4.20;;
60819;SDS011;46641;48.904;9.126;2023-04-08T15:40:52;5.07;;;4.67;;
60819;SDS011;46641;48.904;9.126;2023-04-08T15:45:42;4.70;;;4.27;;
60819;SDS011;46641;48.904;9.126;2023-04-08T15:50:37;6.10;;;5.20;;
60819;SDS011;46641;48.904;9.126;2023-04-08T15:55:27;6.97;;;6.27;;
60819;SDS011;46641;48.904;9.126;2023-04-08T16:00:17;6.10;;;5.60;;
60819;SDS011;46641;48.904;9.126;2023-04-08T16:05:08;6.17;;;5.67;;
60819;SDS011;46641;48.904;9.126;2023-04-08T16:09:58;6.30;;;5.80;;
60819;SDS011;46641;48.904;9.126;2023-04-08T16:14:48;5.93;;;5.43;;
60819;SDS011;46641;48.904;9.126;2023-04-08T16:19:39;5.27;;;4.87;;
60819;SDS011;46641;48.904;9.126;2023-04-08T16:24:33;5.60;;;5.10;;
60819;SDS011;46641;48.904;9.126;2023-04-08T16:29:24;5.03;;;4.63;;
60819;SDS011;46641;48.904;9.126;2023-04-08T16:34:16;5.23;;;4.83;;
60819;SDS011;46641;48.904;9.126;2023-04-08T16:39:06;4.68;;;4.30;;
60819;SDS011;46641;48.904;9.126;2023-04-08T16:43:56;5.40;;;4.97;;
60819;SDS011;46641;48.904;9.126;2023-04-08T16:48:46;4.63;;;3.97;;
60819;SDS011;46641;48.904;9.126;2023-04-08T16:53:37;4.57;;;4.20;;
60819;SDS011;46641;48.904;9.126;2023-04-08T16:58:27;4.20;;;3.90;;
60819;SDS011;46641;48.904;9.126;2023-04-08T17:03:17;4.73;;;4.37;;
60819;SDS011;46641;48.904;9.126;2023-04-08T17:08:08;5.30;;;4.90;;
60819;SDS011;46641;48.904;9.126;2023-04-08T17:12:58;4.77;;;3.97;;
60819;SDS011;46641;48.904;9.126;2023-04-08T17:17:48;5.32;;;4.80;;
60819;SDS011;46641;48.904;9.126;2023-04-08T17:22:38;5.70;;;5.10;;
60819;SDS011;46641;48.904;9.126;2023-04-08T17:27:29;6.00;;;5.47;;
60819;SDS011;46641;48.904;9.126;2023-04-08T17:32:19;6.00;;;5.40;;
60819;SDS011;46641;48.904;9.126;2023-04-08T17:37:10;5.10;;;4.50;;
60819;SDS011;46641;48.904;9.126;2023-04-08T17:42:00;4.60;;;4.20;;
60819;SDS011;46641;48.904;9.126;2023-04-08T17:46:51;5.10;;;4.70;;
60819;SDS011;46641;48.904;9.126;2023-04-08T17:51:41;8.80;;;7.40;;
60819;SDS011;46641;48.904;9.126;2023-04-08T17:56:31;6.28;;;5.78;;
60819;SDS011;46641;48.904;9.126;2023-04-08T18:01:22;5.00;;;4.50;;
60819;SDS011;46641;48.904;9.126;2023-04-08T18:06:12;6.50;;;5.90;;
60819;SDS011;46641;48.904;9.126;2023-04-08T18:11:03;8.97;;;8.13;;
60819;SDS011;46641;48.904;9.126;2023-04-08T18:15:56;7.00;;;6.40;;
60819;SDS011;46641;48.904;9.126;2023-04-08T18:20:46;6.75;;;6.15;;
60819;SDS011;46641;48.904;9.126;2023-04-08T18:25:37;7.30;;;6.60;;
60819;SDS011;46641;48.904;9.126;2023-04-08T18:30:27;6.87;;;6.27;;
60819;SDS011;46641;48.904;9.126;2023-04-08T18:35:19;6.63;;;6.10;;
60819;SDS011;46641;48.904;9.126;2023-04-08T18:40:09;8.57;;;6.83;;
60819;SDS011;46641;48.904;9.126;2023-04-08T18:45:00;7.13;;;6.53;;
60819;SDS011;46641;48.904;9.126;2023-04-08T18:49:50;7.82;;;7.10;;
60819;SDS011;46641;48.904;9.126;2023-04-08T18:54:40;7.70;;;6.97;;
60819;SDS011;46641;48.904;9.126;2023-04-08T18:59:30;9.40;;;8.10;;
60819;SDS011;46641;48.904;9.126;2023-04-08T19:04:21;7.80;;;7.00;;
60819;SDS011;46641;48.904;9.126;2023-04-08T19:09:11;6.17;;;5.60;;
60819;SDS011;46641;48.904;9.126;2023-04-08T19:14:03;7.10;;;5.60;;
60819;SDS011;46641;48.904;9.126;2023-04-08T19:18:53;7.53;;;6.33;;
60819;SDS011;46641;48.904;9.126;2023-04-08T19:23:44;6.27;;;5.67;;
60819;SDS011;46641;48.904;9.126;2023-04-08T19:28:36;6.17;;;5.60;;
60819;SDS011;46641;48.904;9.126;2023-04-08T19:33:26;6.13;;;5.60;;
60819;SDS011;46641;48.904;9.126;2023-04-08T19:38:17;7.97;;;6.57;;
60819;SDS011;46641;48.904;9.126;2023-04-08T19:43:07;14.50;;;13.13;;
60819;SDS011;46641;48.904;9.126;2023-04-08T19:47:57;7.93;;;7.33;;
60819;SDS011;46641;48.904;9.126;2023-04-08T19:52:47;6.72;;;6.05;;
60819;SDS011;46641;48.904;9.126;2023-04-08T19:57:38;6.22;;;5.72;;
60819;SDS011;46641;48.904;9.126;2023-04-08T20:02:28;7.07;;;6.37;;
60819;SDS011;46641;48.904;9.126;2023-04-08T20:07:18;7.40;;;6.70;;
60819;SDS011;46641;48.904;9.126;2023-04-08T20:12:08;6.90;;;6.30;;
60819;SDS011;46641;48.904;9.126;2023-04-08T20:16:59;8.57;;;7.68;;
60819;SDS011;46641;48.904;9.126;2023-04-08T20:21:49;7.53;;;6.73;;
60819;SDS011;46641;48.904;9.126;2023-04-08T20:26:39;7.57;;;6.88;;
60819;SDS011;46641;48.904;9.126;2023-04-08T20:31:30;9.00;;;8.20;;
60819;SDS011;46641;48.904;9.126;2023-04-08T20:36:20;7.53;;;6.83;;
60819;SDS011;46641;48.904;9.126;2023-04-08T20:41:17;7.03;;;6.43;;
60819;SDS011;46641;48.904;9.126;2023-04-08T20:46:11;6.97;;;6.40;;
60819;SDS011;46641;48.904;9.126;2023-04-08T20:51:02;7.65;;;6.97;;
60819;SDS011;46641;48.904;9.126;2023-04-08T20:55:52;6.97;;;6.37;;
60819;SDS011;46641;48.904;9.126;2023-04-08T21:00:42;11.50;;;8.83;;
60819;SDS011;46641;48.904;9.126;2023-04-08T21:05:35;6.70;;;6.10;;
60819;SDS011;46641;48.904;9.126;2023-04-08T21:10:26;7.47;;;6.77;;
60819;SDS011;46641;48.904;9.126;2023-04-08T21:15:16;7.40;;;6.65;;
60819;SDS011;46641;48.904;9.126;2023-04-08T21:20:06;7.17;;;6.47;;
60819;SDS011;46641;48.904;9.126;2023-04-08T21:24:57;7.70;;;7.00;;
60819;SDS011;46641;48.904;9.126;2023-04-08T21:29:50;7.78;;;7.10;;
60819;SDS011;46641;48.904;9.126;2023-04-08T21:34:41;7.47;;;6.37;;
60819;SDS011;46641;48.904;9.126;2023-04-08T21:39:32;8.33;;;7.53;;
60819;SDS011;46641;48.904;9.126;2023-04-08T21:44:22;8.10;;;7.40;;
60819;SDS011;46641;48.904;9.126;2023-04-08T21:49:12;7.93;;;6.97;;
60819;SDS011;46641;48.904;9.126;2023-04-08T21:54:03;7.60;;;6.83;;
60819;SDS011;46641;48.904;9.126;2023-04-08T21:58:53;8.23;;;7.43;;
60819;SDS011;46641;48.904;9.126;2023-04-08T22:03:44;7.47;;;6.77;;
60819;SDS011;46641;48.904;9.126;2023-04-08T22:08:34;8.03;;;7.23;;
60819;SDS011;46641;48.904;9.126;2023-04-08T22:13:25;7.33;;;6.63;;
60819;SDS011;46641;48.904;9.126;2023-04-08T22:18:16;7.63;;;6.93;;
60819;SDS011;46641;48.904;9.126;2023-04-08T22:23:06;7.73;;;7.03;;
60819;SDS011;46641;48.904;9.126;2023-04-08T22:27:56;7.82;;;6.93;;
60819;SDS011;46641;48.904;9.126;2023-04-08T22:32:46;7.72;;;7.03;;
60819;SDS011;46641;48.904;9.126;2023-04-08T22:37:37;8.10;;;7.43;;
60819;SDS011;46641;48.904;9.126;2023-04-08T22:42:27;7.90;;;7.28;;
60819;SDS011;46641;48.904;9.126;2023-04-08T22:47:18;7.80;;;7.10;;
60819;SDS011;46641;48.904;9.126;2023-04-08T22:52:08;7.93;;;7.15;;
60819;SDS011;46641;48.904;9.126;2023-04-08T22:56:59;7.30;;;6.60;;
60819;SDS011;46641;48.904;9.126;2023-04-08T23:01:50;6.57;;;6.07;;
60819;SDS011;46641;48.904;9.126;2023-04-08T23:06:40;7.47;;;6.77;;
60819;SDS011;46641;48.904;9.126;2023-04-08T23:11:31;9.10;;;8.23;;
60819;SDS011;46641;48.904;9.126;2023-04-08T23:16:21;8.35;;;7.57;;
60819;SDS011;46641;48.904;9.126;2023-04-08T23:21:11;8.33;;;7.60;;
60819;SDS011;46641;48.904;9.126;2023-04-08T23:26:02;7.57;;;6.63;;
60819;SDS011;46641;48.904;9.126;2023-04-08T23:30:52;7.75;;;7.05;;
60819;SDS011;46641;48.904;9.126;2023-04-08T23:35:42;7.78;;;7.07;;
60819;SDS011;46641;48.904;9.126;2023-04-08T23:40:33;7.40;;;6.70;;
60819;SDS011;46641;48.904;9.126;2023-04-08T23:45:23;9.35;;;7.50;;
60819;SDS011;46641;48.904;9.126;2023-04-08T23:50:13;8.07;;;7.27;;
60819;SDS011;46641;48.904;9.126;2023-04-08T23:55:04;8.18;;;7.38;;
60819;SDS011;46641;48.904;9.126;2023-04-08T23:59:55;8.40;;;7.47;;
